Time;durP1;ratioP1;P1;durP2;ratioP2;P2;SDS_P1;SDS_P2;PMS_P1;PMS_P2;Temp;Humidity;BMP_temperature;BMP_pressure;BME280_temperature;BME280_humidity;BME280_pressure;Samples;Min_cycle;Max_cycle;Signal;HPM_P1;HPM_P2
2022/11/28 00:01:13;;;;;;;36.30;18.55;;;;;;;2.07;94.44;96316.06;5117031;28;20107;-77
2022/11/28 00:03:41;;;;;;;36.85;19.27;;;;;;;2.09;94.42;96321.19;5118079;27;20054;-76
2022/11/28 00:06:08;;;;;;;37.65;18.95;;;;;;;2.07;94.29;96309.88;5117361;27;20189;-77
2022/11/28 00:08:35;;;;;;;38.38;19.70;;;;;;;2.06;94.59;96308.28;5118444;28;20050;-78
2022/11/28 00:11:03;;;;;;;36.88;18.90;;;;;;;2.02;94.48;96307.19;5117685;28;20043;-76
2022/11/28 00:13:30;;;;;;;38.90;19.15;;;;;;;2.03;94.02;96306.09;5120896;27;20040;-76
2022/11/28 00:15:56;;;;;;;33.63;17.60;;;;;;;2.00;94.29;96298.59;5117637;27;20046;-76
2022/11/28 00:18:23;;;;;;;37.63;19.55;;;;;;;1.98;94.16;96290.78;5117156;27;20039;-77
2022/11/28 00:20:51;;;;;;;37.70;19.27;;;;;;;1.99;94.67;96281.69;5117436;28;20071;-76
2022/11/28 00:23:18;;;;;;;36.28;19.27;;;;;;;1.99;94.63;96292.41;5116911;28;20040;-78
2022/11/28 00:25:44;;;;;;;39.00;19.58;;;;;;;1.96;94.79;96286.75;5116511;28;20035;-77
2022/11/28 00:28:11;;;;;;;36.13;18.02;;;;;;;1.99;94.80;96288.94;5116849;28;20043;-77
2022/11/28 00:30:38;;;;;;;37.50;19.27;;;;;;;1.99;94.73;96291.63;5117241;28;20066;-78
2022/11/28 00:33:05;;;;;;;38.63;19.27;;;;;;;1.95;94.93;96285.16;5116610;27;20047;-79
2022/11/28 00:35:32;;;;;;;35.47;18.63;;;;;;;1.97;94.97;96278.44;5116091;28;20047;-78
2022/11/28 00:38:00;;;;;;;36.75;19.83;;;;;;;2.02;95.16;96267.69;5117020;27;20036;-76
2022/11/28 00:40:26;;;;;;;35.63;18.73;;;;;;;2.02;95.05;96269.59;5116415;28;20055;-76
2022/11/28 00:42:53;;;;;;;38.03;18.95;;;;;;;2.02;95.20;96261.53;5120732;27;20031;-77
2022/11/28 00:45:19;;;;;;;36.97;19.30;;;;;;;1.99;95.24;96268.25;5116789;27;20046;-77
2022/11/28 00:47:48;;;;;;;37.72;19.92;;;;;;;2.03;94.37;96265.81;5117444;28;20046;-77
2022/11/28 00:50:14;;;;;;;35.95;18.40;;;;;;;2.02;94.58;96269.59;5116531;28;20074;-76
2022/11/28 00:52:41;;;;;;;39.03;19.60;;;;;;;1.99;94.73;96270.13;5117818;28;20062;-77
2022/11/28 00:55:09;;;;;;;35.65;18.88;;;;;;;2.03;94.53;96261.25;5116864;27;20046;-76
2022/11/28 00:57:35;;;;;;;34.28;17.83;;;;;;;2.04;94.87;96262.09;5118110;28;20560;-77
2022/11/28 01:00:04;;;;;;;36.97;18.77;;;;;;;1.98;94.62;96250.50;5117069;28;20399;-76
2022/11/28 01:02:30;;;;;;;31.75;16.38;;;;;;;2.02;94.68;96265.00;5117319;28;20047;-76
2022/11/28 01:04:57;;;;;;;31.42;17.52;;;;;;;2.03;94.43;96279.25;5116535;28;20039;-76
2022/11/28 01:07:27;;;;;;;34.72;17.92;;;;;;;2.02;94.53;96274.94;5116270;27;20486;-76
2022/11/28 01:09:53;;;;;;;30.92;16.85;;;;;;;2.03;94.29;96261.25;5114414;28;20052;-77
2022/11/28 01:12:21;;;;;;;28.52;15.38;;;;;;;1.98;94.16;96276.56;5113599;28;20067;-76
2022/11/28 01:14:48;;;;;;;28.52;16.45;;;;;;;1.97;93.96;96283.81;5116586;28;20050;-76
2022/11/28 01:17:14;;;;;;;31.67;16.35;;;;;;;1.98;93.79;96280.03;5109516;27;20051;-76
2022/11/28 01:19:41;;;;;;;25.30;14.45;;;;;;;1.96;93.80;96276.03;5113720;28;20043;-76
2022/11/28 01:22:08;;;;;;;27.85;15.13;;;;;;;1.99;93.26;96270.13;5115606;27;20057;-74
2022/11/28 01:24:34;;;;;;;25.35;14.52;;;;;;;2.04;93.64;96264.78;5116026;28;20039;-76
2022/11/28 01:27:03;;;;;;;26.25;15.65;;;;;;;2.00;93.43;96250.25;5116129;28;20042;-77
2022/11/28 01:29:31;;;;;;;28.98;15.70;;;;;;;1.98;93.65;96250.50;5115142;28;20043;-76
2022/11/28 01:32:00;;;;;;;23.27;13.82;;;;;;;2.00;93.65;96250.25;5115706;28;20051;-76
2022/11/28 01:34:27;;;;;;;24.52;14.02;;;;;;;1.97;93.64;96245.41;5115686;28;20513;-76
2022/11/28 01:36:54;;;;;;;25.88;14.38;;;;;;;1.95;93.39;96237.63;5115584;27;20075;-76
2022/11/28 01:39:21;;;;;;;26.52;14.73;;;;;;;1.95;93.06;96236.81;5114417;28;20068;-77
2022/11/28 01:41:48;;;;;;;26.38;14.15;;;;;;;1.90;93.58;96240.28;5114889;28;20040;-76
2022/11/28 01:44:52;;;;;;;26.80;14.85;;;;;;;1.82;93.57;96243.47;5113418;28;20055;-76
2022/11/28 01:47:24;;;;;;;25.60;13.98;;;;;;;1.77;93.72;96241.59;5124246;27;20395;-78
2022/11/28 01:49:51;;;;;;;28.00;14.10;;;;;;;1.77;93.65;96238.91;5134117;27;20046;-76
2022/11/28 01:52:19;;;;;;;28.38;14.85;;;;;;;1.80;93.79;96227.66;5133672;27;20621;-76
2022/11/28 01:54:48;;;;;;;29.58;15.35;;;;;;;1.82;93.71;96222.81;5113704;28;20102;-76
2022/11/28 01:57:18;;;;;;;25.63;14.88;;;;;;;1.78;93.92;96210.22;5114600;27;20398;-77
2022/11/28 01:59:49;;;;;;;26.92;15.20;;;;;;;1.75;93.84;96202.66;5114500;28;20126;-75
2022/11/28 02:02:23;;;;;;;25.95;14.63;;;;;;;1.74;93.86;96201.88;5114211;27;20044;-77
2022/11/28 02:04:52;;;;;;;30.15;15.88;;;;;;;1.70;94.14;96198.09;5110346;28;20495;-76
2022/11/28 02:07:19;;;;;;;26.58;14.82;;;;;;;1.66;94.23;96196.19;5114156;28;20121;-78
2022/11/28 02:09:46;;;;;;;32.67;15.00;;;;;;;1.67;94.39;96193.28;5114231;28;20043;-76
2022/11/28 02:12:27;;;;;;;27.80;15.18;;;;;;;1.64;94.38;96196.47;5115879;28;20132;-77
2022/11/28 02:15:09;;;;;;;31.67;16.00;;;;;;;1.60;94.49;96190.00;5099346;28;20040;-74
2022/11/28 02:17:48;;;;;;;35.05;16.65;;;;;;;1.60;94.54;96198.06;5116520;27;20036;-76
2022/11/28 02:20:36;;;;;;;30.38;16.13;;;;;;;1.59;94.35;96201.81;5118762;28;20047;-76
2022/11/28 02:23:13;;;;;;;32.10;16.65;;;;;;;1.58;94.44;96197.53;5117630;28;20050;-76
2022/11/28 02:26:08;;;;;;;34.30;16.92;;;;;;;1.57;94.79;96198.63;5115508;28;20410;-76
2022/11/28 02:28:58;;;;;;;33.78;17.05;;;;;;;1.61;94.75;96202.34;5113631;28;20127;-76
2022/11/28 02:31:41;;;;;;;31.27;16.05;;;;;;;1.65;95.02;96214.19;5111818;27;20092;-75
2022/11/28 02:34:12;;;;;;;33.13;16.70;;;;;;;1.67;94.93;96222.81;5115068;28;20570;-76
2022/11/28 02:36:47;;;;;;;38.58;18.48;;;;;;;1.70;94.70;96230.31;5114305;28;20044;-79
2022/11/28 02:39:22;;;;;;;34.97;17.08;;;;;;;1.73;94.85;96237.03;5112843;28;20047;-77
2022/11/28 02:41:56;;;;;;;35.63;16.95;;;;;;;1.77;94.64;96230.84;5114607;28;20649;-78
2022/11/28 02:44:26;;;;;;;30.50;16.38;;;;;;;1.82;94.62;96225.50;5113337;28;20046;-75
2022/11/28 02:47:01;;;;;;;32.13;16.55;;;;;;;1.87;94.70;96234.63;5118036;27;20041;-78
2022/11/28 02:49:34;;;;;;;33.60;16.92;;;;;;;1.89;94.65;96237.88;5113469;28;20055;-79
2022/11/28 02:52:05;;;;;;;31.15;15.30;;;;;;;1.90;94.61;96234.13;5110710;28;20043;-77
2022/11/28 02:54:32;;;;;;;34.47;17.85;;;;;;;1.91;94.24;96236.53;5113706;28;20035;-76
2022/11/28 02:57:01;;;;;;;33.00;16.75;;;;;;;1.94;94.20;96229.84;5113990;28;20046;-78
2022/11/28 02:59:33;;;;;;;35.08;17.02;;;;;;;1.97;94.04;96223.91;5113626;28;20071;-76
2022/11/28 03:02:01;;;;;;;32.08;16.92;;;;;;;1.86;94.14;96211.56;5113252;27;20483;-76
2022/11/28 03:04:39;;;;;;;33.03;17.15;;;;;;;1.90;94.44;96199.22;5113747;28;20114;-79
2022/11/28 03:07:17;;;;;;;34.17;16.63;;;;;;;1.90;94.24;96197.34;5112883;28;20051;-78
2022/11/28 03:09:55;;;;;;;32.38;17.35;;;;;;;1.85;94.42;96188.47;5113485;28;20639;-78
2022/11/28 03:12:31;;;;;;;35.30;16.80;;;;;;;1.81;94.04;96191.66;5113324;28;20055;-77
2022/11/28 03:15:02;;;;;;;33.00;16.23;;;;;;;1.78;94.10;96188.72;5114197;28;20046;-77
2022/11/28 03:17:37;;;;;;;34.08;17.20;;;;;;;1.75;94.55;96182.00;5118461;28;20044;-77
2022/11/28 03:20:20;;;;;;;33.08;16.95;;;;;;;1.74;94.21;96182.28;5111961;28;20552;-76
2022/11/28 03:22:58;;;;;;;32.97;17.23;;;;;;;1.73;94.18;96176.09;5113769;28;20043;-77
2022/11/28 03:25:30;;;;;;;34.55;17.42;;;;;;;1.73;94.85;96165.38;5113324;28;20498;-77
2022/11/28 03:28:03;;;;;;;38.05;19.33;;;;;;;1.75;94.74;96160.53;5113859;28;20521;-77
2022/11/28 03:30:33;;;;;;;33.08;18.15;;;;;;;1.74;94.59;96150.88;5113278;28;20067;-77
2022/11/28 03:33:02;;;;;;;35.50;17.85;;;;;;;1.68;95.10;96141.19;5113457;28;20038;-78
2022/11/28 03:35:34;;;;;;;35.65;17.15;;;;;;;1.69;95.20;96136.63;5112120;28;20039;-78
2022/11/28 03:38:05;;;;;;;38.70;18.90;;;;;;;1.63;95.07;96138.50;5113133;28;20048;-77
2022/11/28 03:40:39;;;;;;;34.28;17.85;;;;;;;1.66;95.33;96143.31;5112840;28;20123;-77
2022/11/28 03:43:12;;;;;;;33.38;17.00;;;;;;;1.63;95.46;96141.19;5112184;28;20039;-79
2022/11/28 03:45:43;;;;;;;35.45;17.83;;;;;;;1.69;95.41;96152.75;5112481;28;20403;-77
2022/11/28 03:48:16;;;;;;;33.58;17.38;;;;;;;1.73;95.09;96164.56;5118019;27;20513;-77
2022/11/28 03:50:48;;;;;;;32.47;16.00;;;;;;;1.75;95.24;96168.56;5092449;28;20036;-78
2022/11/28 03:53:19;;;;;;;34.80;17.38;;;;;;;1.60;95.49;96165.88;5108975;28;20525;-78
2022/11/28 03:55:50;;;;;;;34.72;16.58;;;;;;;1.74;95.43;96171.53;5112304;28;20043;-79
2022/11/28 03:58:22;;;;;;;31.42;17.00;;;;;;;1.73;95.36;96160.00;5112835;28;20043;-79
2022/11/28 04:00:58;;;;;;;32.22;16.90;;;;;;;1.77;95.51;96166.41;5112791;28;20043;-78
2022/11/28 04:03:38;;;;;;;33.25;16.65;;;;;;;1.78;95.44;96151.94;5112087;28;20509;-79
2022/11/28 04:06:15;;;;;;;33.20;16.83;;;;;;;1.80;95.57;96152.47;5112018;28;20050;-78
2022/11/28 04:08:48;;;;;;;32.30;16.92;;;;;;;1.78;95.12;96151.94;5095076;28;20048;-78
2022/11/28 04:11:19;;;;;;;31.35;16.77;;;;;;;1.75;95.12;96147.09;5116432;27;20054;-77
2022/11/28 04:13:52;;;;;;;34.03;16.60;;;;;;;1.73;95.51;96141.19;5116530;28;20048;-78
2022/11/28 04:16:23;;;;;;;31.75;16.27;;;;;;;1.72;94.72;96131.53;5116305;27;20051;-77
2022/11/28 04:18:55;;;;;;;34.10;15.63;;;;;;;1.68;95.09;96122.41;5115268;28;20050;-78
2022/11/28 04:21:30;;;;;;;31.10;16.35;;;;;;;1.67;94.76;96122.66;5116483;27;20048;-79
2022/11/28 04:24:00;;;;;;;33.28;16.95;;;;;;;1.65;94.95;96109.50;5116827;28;20048;-78
2022/11/28 04:26:33;;;;;;;35.30;16.50;;;;;;;1.60;95.29;96106.00;5117241;28;20046;-78
2022/11/28 04:29:02;;;;;;;29.90;15.57;;;;;;;1.59;95.50;96093.69;5117377;28;20043;-78
2022/11/28 04:31:31;;;;;;;34.13;16.45;;;;;;;1.57;95.71;96091.28;5116695;28;20270;-78
2022/11/28 04:34:02;;;;;;;34.17;16.02;;;;;;;1.57;95.24;96091.28;5114903;28;20039;-77
2022/11/28 04:36:32;;;;;;;31.65;16.65;;;;;;;1.55;95.53;96083.47;5116764;28;20039;-77
2022/11/28 04:39:01;;;;;;;28.67;15.25;;;;;;;1.57;95.55;96093.94;5116710;28;20185;-77
2022/11/28 04:41:34;;;;;;;34.90;17.70;;;;;;;1.58;95.50;96092.88;5116885;27;20051;-78
2022/11/28 04:44:09;;;;;;;31.15;15.85;;;;;;;1.62;95.41;96095.81;5116490;28;20039;-77
2022/11/28 04:46:41;;;;;;;32.67;16.90;;;;;;;1.61;95.54;96103.06;5117246;27;20100;-77
2022/11/28 04:49:08;;;;;;;32.88;16.30;;;;;;;1.65;95.74;96125.63;5100394;28;20411;-78
2022/11/28 04:51:44;;;;;;;36.17;17.13;;;;;;;1.62;95.39;96115.44;5116823;28;20162;-78
2022/11/28 04:54:15;;;;;;;35.97;17.77;;;;;;;1.67;95.33;96112.75;5115675;28;20050;-78
2022/11/28 04:56:46;;;;;;;31.98;16.10;;;;;;;1.60;95.50;96096.09;5114915;27;20486;-78
2022/11/28 04:59:14;;;;;;;32.85;16.42;;;;;;;1.61;95.60;96103.06;5116041;27;20043;-78
2022/11/28 05:01:45;;;;;;;33.70;18.15;;;;;;;1.61;95.45;96099.56;5115666;28;20054;-78
2022/11/28 05:04:13;;;;;;;37.35;18.35;;;;;;;1.58;95.36;96092.06;5114748;28;20054;-79
2022/11/28 05:06:41;;;;;;;40.25;18.73;;;;;;;1.58;95.43;96097.44;5115149;28;20415;-79
2022/11/28 05:09:10;;;;;;;36.05;17.50;;;;;;;1.57;95.52;96091.28;5114280;27;20047;-79
2022/11/28 05:11:37;;;;;;;35.28;17.08;;;;;;;1.60;95.55;96089.91;5115394;28;20044;-79
2022/11/28 05:14:03;;;;;;;33.65;17.13;;;;;;;1.61;95.38;96108.41;5113263;28;20228;-78
2022/11/28 05:16:30;;;;;;;34.00;17.05;;;;;;;1.66;95.35;96113.78;5110734;27;20504;-79
2022/11/28 05:18:56;;;;;;;34.97;17.92;;;;;;;1.68;95.24;96100.94;5114169;27;20401;-78
2022/11/28 05:21:23;;;;;;;34.78;18.10;;;;;;;1.76;95.54;96094.22;5113605;27;20067;-79
2022/11/28 05:23:51;;;;;;;38.95;17.92;;;;;;;1.78;95.35;96087.53;5114901;28;20616;-79
2022/11/28 05:26:21;;;;;;;38.65;18.42;;;;;;;1.81;95.18;96086.97;5114436;27;20414;-79
2022/11/28 05:28:49;;;;;;;36.75;18.08;;;;;;;1.77;95.23;96096.63;5114624;28;20040;-79
2022/11/28 05:31:17;;;;;;;37.47;17.48;;;;;;;1.77;95.16;96096.63;5113294;28;20047;-78
2022/11/28 05:33:44;;;;;;;38.13;18.48;;;;;;;1.72;95.21;96087.75;5114321;28;20050;-79
2022/11/28 05:36:13;;;;;;;36.15;18.10;;;;;;;1.77;95.12;96090.44;5114125;27;20063;-78
2022/11/28 05:38:40;;;;;;;39.00;17.48;;;;;;;1.76;95.31;96083.47;5113691;28;20050;-78
2022/11/28 05:41:08;;;;;;;46.38;20.90;;;;;;;1.77;95.46;96085.06;5112757;28;20047;-79
2022/11/28 05:43:36;;;;;;;39.50;19.63;;;;;;;1.75;95.47;96088.03;5114116;28;20406;-79
2022/11/28 05:46:04;;;;;;;36.78;17.85;;;;;;;1.74;95.30;96099.06;5113294;28;20112;-77
2022/11/28 05:48:31;;;;;;;46.03;21.90;;;;;;;1.47;96.13;96121.56;5113813;27;20431;-79
2022/11/28 05:50:57;;;;;;;41.45;19.80;;;;;;;1.49;96.59;96132.03;5113727;28;20055;-78
2022/11/28 05:53:24;;;;;;;38.70;18.67;;;;;;;1.55;96.33;96130.97;5113621;27;20776;-77
2022/11/28 05:55:51;;;;;;;41.30;19.48;;;;;;;1.57;95.65;96139.56;5114037;27;20047;-79
2022/11/28 05:58:19;;;;;;;39.65;18.88;;;;;;;1.55;95.64;96147.06;5113035;28;20043;-79
2022/11/28 06:00:45;;;;;;;40.97;19.52;;;;;;;1.49;96.01;96118.63;5112936;28;20048;-77
2022/11/28 06:03:12;;;;;;;42.15;19.42;;;;;;;1.58;96.48;96119.72;5112458;28;20061;-78
2022/11/28 06:05:40;;;;;;;39.10;19.38;;;;;;;1.56;95.99;96111.91;5112977;27;20040;-77
2022/11/28 06:08:07;;;;;;;41.28;19.60;;;;;;;1.57;96.36;96102.00;5111728;27;20050;-77
2022/11/28 06:10:34;;;;;;;40.22;18.27;;;;;;;1.59;96.17;96115.16;5113022;28;20067;-77
2022/11/28 06:13:02;;;;;;;43.13;20.17;;;;;;;1.52;96.38;96110.03;5113712;28;20043;-78
2022/11/28 06:15:30;;;;;;;37.35;18.13;;;;;;;1.57;96.33;96110.06;5113758;27;20378;-76
2022/11/28 06:17:57;;;;;;;41.55;19.20;;;;;;;1.59;96.20;96107.91;5112818;28;20048;-76
2022/11/28 06:20:24;;;;;;;43.00;19.00;;;;;;;1.60;96.31;96096.09;5120821;27;20058;-76
2022/11/28 06:22:50;;;;;;;40.33;19.10;;;;;;;1.53;96.39;96100.91;5115361;27;20129;-76
2022/11/28 06:25:17;;;;;;;38.70;18.65;;;;;;;1.59;96.91;96091.78;5132613;27;20047;-77
2022/11/28 06:27:44;;;;;;;41.50;19.23;;;;;;;1.58;96.41;96097.44;5132903;27;20039;-77
2022/11/28 06:30:10;;;;;;;36.85;17.33;;;;;;;1.61;96.57;96088.84;5118279;27;20048;-77
2022/11/28 06:32:40;;;;;;;39.90;19.35;;;;;;;1.64;96.21;96113.28;5122824;27;20065;-78
2022/11/28 06:35:07;;;;;;;35.17;18.75;;;;;;;1.63;96.09;96095.56;5120450;27;20047;-78
2022/11/28 06:37:33;;;;;;;43.58;19.33;;;;;;;1.62;95.47;96104.69;5112371;27;20074;-77
2022/11/28 06:40:00;;;;;;;43.58;19.73;;;;;;;1.54;95.96;96097.16;5114128;27;20039;-77
2022/11/28 06:42:27;;;;;;;41.03;19.65;;;;;;;1.57;96.07;96102.00;5130284;27;20409;-77
2022/11/28 06:44:53;;;;;;;35.10;18.00;;;;;;;1.57;96.34;96085.91;5130224;27;20050;-77
2022/11/28 06:47:20;;;;;;;40.90;19.67;;;;;;;1.59;96.33;96070.31;5112322;27;20055;-76
2022/11/28 06:49:49;;;;;;;44.03;20.13;;;;;;;1.62;96.33;96091.28;5109453;27;20422;-78
2022/11/28 06:52:17;;;;;;;34.85;18.77;;;;;;;1.67;95.82;96087.75;5109414;27;20098;-77
2022/11/28 06:54:44;;;;;;;41.35;19.17;;;;;;;1.70;95.84;96079.19;5110112;27;20528;-76
2022/11/28 06:57:11;;;;;;;35.17;17.85;;;;;;;1.71;95.82;96084.28;5130045;27;20043;-77
2022/11/28 06:59:37;;;;;;;39.75;17.55;;;;;;;1.74;95.79;96074.91;5131796;27;20142;-77
2022/11/28 07:02:05;;;;;;;39.28;18.60;;;;;;;1.73;95.99;96063.34;5129981;27;20044;-77
2022/11/28 07:04:31;;;;;;;37.22;18.65;;;;;;;1.75;95.66;96071.94;5130310;27;20062;-76
2022/11/28 07:06:59;;;;;;;44.05;19.70;;;;;;;1.78;95.57;96060.66;5129633;27;20557;-76
2022/11/28 07:09:26;;;;;;;40.88;19.05;;;;;;;1.81;95.12;96068.16;5129454;27;20060;-77
2022/11/28 07:11:52;;;;;;;41.40;20.40;;;;;;;1.73;94.98;96074.09;5129795;27;20088;-77
2022/11/28 07:14:19;;;;;;;40.03;18.90;;;;;;;1.77;95.31;96069.78;5130024;27;20103;-76
2022/11/28 07:16:46;;;;;;;39.88;18.40;;;;;;;1.87;95.26;96065.47;5117500;27;20048;-77
2022/11/28 07:19:12;;;;;;;39.55;18.17;;;;;;;1.89;94.92;96076.78;5110449;27;20636;-78
2022/11/28 07:21:39;;;;;;;35.75;17.15;;;;;;;1.92;94.75;96086.97;5115840;27;20044;-78
2022/11/28 07:24:08;;;;;;;36.50;16.67;;;;;;;1.90;94.71;96089.13;5121250;27;20039;-77
2022/11/28 07:26:36;;;;;;;39.08;19.48;;;;;;;1.87;94.89;96074.34;5112396;27;20532;-77
2022/11/28 07:29:05;;;;;;;36.97;17.60;;;;;;;2.00;94.63;96089.13;5112635;27;20094;-77
2022/11/28 07:31:32;;;;;;;40.63;19.38;;;;;;;1.92;94.43;96082.41;5113759;27;20063;-77
2022/11/28 07:34:01;;;;;;;32.88;17.27;;;;;;;2.03;94.43;96067.06;5113238;27;20089;-77
2022/11/28 07:36:28;;;;;;;37.67;17.95;;;;;;;2.04;94.42;96082.13;5112848;27;20043;-77
2022/11/28 07:38:57;;;;;;;37.53;18.23;;;;;;;2.05;93.90;96081.06;5113444;27;20042;-77
2022/11/28 07:41:27;;;;;;;32.58;16.50;;;;;;;2.11;93.68;96074.59;5112912;27;20514;-76
2022/11/28 07:43:55;;;;;;;34.67;16.73;;;;;;;2.16;93.94;96081.84;5114934;27;20043;-78
2022/11/28 07:46:22;;;;;;;33.97;17.60;;;;;;;2.06;93.34;96082.66;5117804;27;20228;-77
2022/11/28 07:48:49;;;;;;;31.67;15.45;;;;;;;2.11;93.58;96089.91;5116237;28;20056;-78
2022/11/28 07:51:18;;;;;;;31.65;15.95;;;;;;;2.22;93.20;96097.69;5115640;27;20044;-77
2022/11/28 07:53:45;;;;;;;33.15;15.95;;;;;;;2.25;92.09;96096.34;5116330;27;20103;-77
2022/11/28 07:56:14;;;;;;;34.42;17.13;;;;;;;2.23;91.80;96099.28;5116496;27;20486;-77
2022/11/28 07:58:44;;;;;;;33.20;16.33;;;;;;;2.20;91.28;96094.47;5116821;28;20040;-77
2022/11/28 08:01:12;;;;;;;32.88;15.27;;;;;;;2.27;91.31;96089.63;5117068;28;20539;-78
2022/11/28 08:03:39;;;;;;;33.90;16.45;;;;;;;2.26;90.80;96079.94;5117332;28;20040;-78
2022/11/28 08:06:07;;;;;;;30.42;15.20;;;;;;;2.31;91.41;96068.38;5117851;28;20618;-77
2022/11/28 08:08:34;;;;;;;30.55;15.50;;;;;;;2.38;91.46;96068.09;5117417;28;20571;-78
2022/11/28 08:11:03;;;;;;;29.50;15.32;;;;;;;2.43;91.22;96070.78;5116889;28;20050;-79
2022/11/28 08:13:30;;;;;;;27.85;14.45;;;;;;;2.44;89.25;96064.31;5116535;28;20035;-79
2022/11/28 08:15:58;;;;;;;30.05;15.00;;;;;;;2.41;89.80;96062.19;5116222;27;20046;-79
2022/11/28 08:18:25;;;;;;;27.35;14.45;;;;;;;2.47;90.12;96044.97;5118964;27;20111;-78
2022/11/28 08:20:51;;;;;;;27.52;14.27;;;;;;;2.46;90.10;96033.41;5118691;28;20043;-79
2022/11/28 08:23:18;;;;;;;25.98;13.82;;;;;;;2.51;90.43;96021.84;5117521;28;20062;-79
2022/11/28 08:25:44;;;;;;;28.40;14.05;;;;;;;2.50;89.91;96018.34;5118108;27;20036;-78
2022/11/28 08:28:11;;;;;;;28.50;14.75;;;;;;;2.48;89.08;96019.69;5124104;27;20032;-80
2022/11/28 08:30:38;;;;;;;24.13;13.15;;;;;;;2.50;89.09;96017.53;5123137;28;20046;-80
2022/11/28 08:33:06;;;;;;;28.65;15.18;;;;;;;2.43;89.44;96028.56;5122036;28;20040;-78
2022/11/28 08:35:32;;;;;;;26.08;13.32;;;;;;;2.53;89.53;96043.88;5120404;28;20126;-79
2022/11/28 08:37:59;;;;;;;25.70;13.27;;;;;;;2.58;89.05;96051.91;5121343;28;20123;-78
2022/11/28 08:40:25;;;;;;;24.25;12.93;;;;;;;2.58;88.09;96062.66;5120366;27;20049;-78
2022/11/28 08:42:52;;;;;;;23.88;13.25;;;;;;;2.26;88.81;96071.88;5126301;27;20040;-82
2022/11/28 08:45:21;;;;;;;23.75;12.80;;;;;;;2.08;89.14;96081.31;5123926;27;20039;-81
2022/11/28 08:47:48;;;;;;;26.00;13.63;;;;;;;2.24;88.80;96086.66;5124829;27;20063;-81
2022/11/28 08:50:16;;;;;;;23.92;12.60;;;;;;;2.23;89.83;96088.53;5120118;27;20572;-78
2022/11/28 08:52:43;;;;;;;23.75;12.60;;;;;;;2.43;89.78;96086.91;5119412;28;20043;-78
2022/11/28 08:55:10;;;;;;;19.50;11.07;;;;;;;2.45;88.40;96082.84;5119089;28;20048;-78
2022/11/28 08:57:37;;;;;;;19.33;10.93;;;;;;;2.56;87.22;96083.66;5120629;28;20562;-78
2022/11/28 09:00:05;;;;;;;20.80;11.70;;;;;;;2.62;87.34;96085.25;5119660;27;20047;-77
2022/11/28 09:02:31;;;;;;;25.10;11.95;;;;;;;2.72;87.08;96073.66;5119746;28;20074;-77
2022/11/28 09:04:58;;;;;;;21.75;11.38;;;;;;;2.85;86.67;96092.69;5118475;28;20070;-77
2022/11/28 09:07:26;;;;;;;24.10;12.55;;;;;;;2.74;86.51;96106.44;5117822;27;20509;-77
2022/11/28 09:09:52;;;;;;;20.65;11.48;;;;;;;2.77;87.28;96097.84;5118260;28;20050;-77
2022/11/28 09:12:19;;;;;;;23.73;11.70;;;;;;;2.80;87.40;96092.69;5119607;27;20044;-77
2022/11/28 09:14:45;;;;;;;21.27;12.00;;;;;;;2.96;87.22;96087.25;5119380;28;20450;-80
2022/11/28 09:17:14;;;;;;;22.00;12.10;;;;;;;3.02;87.22;96078.06;5124320;27;20395;-79
2022/11/28 09:19:41;;;;;;;19.08;10.55;;;;;;;3.08;86.96;96077.78;5120396;27;20071;-77
2022/11/28 09:22:08;;;;;;;21.95;12.20;;;;;;;3.17;86.05;96080.69;5117763;28;20059;-77
2022/11/28 09:24:36;;;;;;;22.00;11.75;;;;;;;3.24;86.07;96081.22;5117782;27;20066;-77
2022/11/28 09:27:03;;;;;;;20.60;12.00;;;;;;;3.18;85.05;96068.84;5117593;27;20074;-77
2022/11/28 09:29:29;;;;;;;21.13;11.18;;;;;;;3.25;84.11;96077.44;5119215;28;20044;-79
2022/11/28 09:31:56;;;;;;;20.55;11.32;;;;;;;3.27;83.65;96066.38;5125727;27;20047;-78
2022/11/28 09:34:23;;;;;;;20.88;11.20;;;;;;;3.35;83.82;96069.31;5117987;27;20055;-81
2022/11/28 09:36:49;;;;;;;19.65;11.13;;;;;;;3.43;84.05;96056.31;5114528;28;20040;-78
2022/11/28 09:39:16;;;;;;;18.73;10.20;;;;;;;3.58;84.23;96059.72;5115950;27;20067;-78
2022/11/28 09:41:52;;;;;;;21.33;10.98;;;;;;;3.58;83.34;96067.00;5116485;27;20054;-78
2022/11/28 09:44:23;;;;;;;18.33;11.05;;;;;;;3.54;82.61;96053.28;5124295;27;20049;-77
2022/11/28 09:46:53;;;;;;;18.13;10.57;;;;;;;3.67;81.91;96057.25;5124351;27;20473;-77
2022/11/28 09:49:34;;;;;;;21.30;10.82;;;;;;;3.64;81.34;96084.72;5115087;27;20051;-78
2022/11/28 09:52:06;;;;;;;18.35;10.45;;;;;;;3.55;81.35;96059.47;5113426;27;20617;-77
2022/11/28 09:54:41;;;;;;;18.65;9.88;;;;;;;3.66;81.64;96055.63;5112429;27;20047;-78
2022/11/28 09:57:15;;;;;;;20.63;11.27;;;;;;;3.78;82.62;96047.19;5112174;27;20055;-77
2022/11/28 09:59:42;;;;;;;21.60;12.23;;;;;;;3.63;81.39;96050.78;5110496;27;20051;-77
2022/11/28 10:02:22;;;;;;;17.33;10.40;;;;;;;3.70;80.42;96056.66;5112861;27;20677;-77
2022/11/28 10:04:57;;;;;;;18.25;10.07;;;;;;;3.88;80.35;96057.88;5113337;27;20055;-75
2022/11/28 10:07:33;;;;;;;21.23;11.25;;;;;;;3.62;80.58;96070.75;5110855;27;20039;-77
2022/11/28 10:10:09;;;;;;;21.30;11.15;;;;;;;3.81;79.69;96068.97;5111527;28;20089;-76
2022/11/28 10:12:49;;;;;;;18.00;10.15;;;;;;;3.91;79.79;96068.06;5111393;27;20487;-76
2022/11/28 10:15:27;;;;;;;18.77;11.05;;;;;;;3.96;80.49;96045.69;5113438;27;20058;-75
2022/11/28 10:18:07;;;;;;;19.27;10.52;;;;;;;4.11;80.05;96051.72;5113549;28;20047;-76
2022/11/28 10:20:38;;;;;;;16.15;9.40;;;;;;;4.23;80.06;96047.84;5115949;28;20058;-76
2022/11/28 10:23:11;;;;;;;20.88;9.68;;;;;;;4.36;80.47;96053.38;5114488;28;20046;-78
2022/11/28 10:25:42;;;;;;;15.70;8.38;;;;;;;4.38;78.67;96045.78;5134179;27;20054;-77
2022/11/28 10:28:16;;;;;;;19.00;10.40;;;;;;;4.33;78.76;96050.44;5137435;27;20050;-77
2022/11/28 10:30:48;;;;;;;18.38;9.55;;;;;;;4.44;79.26;96052.75;5137808;27;20047;-76
2022/11/28 10:33:21;;;;;;;16.80;9.57;;;;;;;4.57;78.54;96053.97;5138599;27;20047;-76
2022/11/28 10:35:53;;;;;;;16.60;9.63;;;;;;;4.60;78.10;96055.28;5137408;27;20043;-77
2022/11/28 10:38:24;;;;;;;18.85;10.05;;;;;;;4.57;77.71;96059.34;5137992;27;20071;-77
2022/11/28 10:40:59;;;;;;;20.10;9.18;;;;;;;4.62;77.92;96048.50;5141310;27;20042;-77
2022/11/28 10:43:42;;;;;;;18.48;9.68;;;;;;;4.58;78.92;96046.66;5139561;27;20047;-78
2022/11/28 10:46:35;;;;;;;19.42;10.45;;;;;;;4.71;79.30;96048.69;5131877;27;20051;-75
2022/11/28 10:49:15;;;;;;;17.63;10.65;;;;;;;4.70;78.46;96041.69;5116244;28;20071;-75
2022/11/28 10:51:54;;;;;;;14.57;8.70;;;;;;;4.71;78.68;96040.59;5116881;28;20050;-76
2022/11/28 10:54:31;;;;;;;18.13;9.82;;;;;;;4.75;77.92;96043.50;5115039;28;20048;-75
2022/11/28 10:57:06;;;;;;;17.30;9.98;;;;;;;4.78;78.09;96045.63;5114480;28;20065;-76
2022/11/28 10:59:57;;;;;;;16.50;9.60;;;;;;;4.86;78.48;96048.50;5116267;28;20035;-76
2022/11/28 11:02:33;;;;;;;19.17;9.38;;;;;;;4.85;77.14;96049.56;5115920;28;20052;-75
2022/11/28 11:05:00;;;;;;;21.00;9.88;;;;;;;4.84;77.47;96042.59;5118029;28;20082;-76
2022/11/28 11:07:29;;;;;;;17.35;9.90;;;;;;;4.84;77.51;96037.19;5121354;28;20106;-76
2022/11/28 11:09:57;;;;;;;15.98;9.35;;;;;;;4.98;78.68;96048.88;5119973;28;20059;-76
2022/11/28 11:12:26;;;;;;;18.38;10.82;;;;;;;5.01;78.60;96042.09;5118290;28;20044;-76
2022/11/28 11:14:54;;;;;;;19.98;10.15;;;;;;;5.00;78.29;96045.88;5115380;28;20058;-76
2022/11/28 11:17:25;;;;;;;17.23;9.25;;;;;;;5.02;77.57;96037.53;5115365;28;20046;-77
2022/11/28 11:19:52;;;;;;;15.85;8.77;;;;;;;5.09;78.02;96044.16;5118993;28;20150;-77
2022/11/28 11:22:21;;;;;;;14.23;8.15;;;;;;;4.90;75.28;96041.41;5122415;27;20119;-76
2022/11/28 11:25:05;;;;;;;13.45;8.60;;;;;;;5.05;75.43;96036.94;5121186;28;20047;-76
2022/11/28 11:27:32;;;;;;;14.50;8.60;;;;;;;5.16;76.11;96035.69;5121663;28;20044;-77
2022/11/28 11:30:15;;;;;;;13.50;8.02;;;;;;;5.24;77.38;96045.84;5121916;27;20050;-75
2022/11/28 11:32:41;;;;;;;14.18;8.07;;;;;;;5.26;76.79;96038.25;5120422;28;20063;-76
2022/11/28 11:35:18;;;;;;;13.57;7.95;;;;;;;5.28;74.41;96040.69;5119419;28;20425;-77
2022/11/28 11:37:45;;;;;;;15.18;7.68;;;;;;;5.19;74.36;96043.22;5123213;28;20493;-76
2022/11/28 11:40:22;;;;;;;16.00;7.82;;;;;;;5.20;72.77;96039.44;5123430;28;20055;-78